sensor_id;sensor_type;location;lat;lon;timestamp;P1;durP1;ratioP1;P2;durP2;ratioP2
75419;SDS011;63998;52.488;13.428;2024-03-02T00:01:12;49.22;;;25.73;;
75419;SDS011;63998;52.488;13.428;2024-03-02T00:03:37;48.03;;;26.33;;
75419;SDS011;63998;52.488;13.428;2024-03-02T00:06:03;48.55;;;25.20;;
75419;SDS011;63998;52.488;13.428;2024-03-02T00:08:29;50.58;;;26.65;;
75419;SDS011;63998;52.488;13.428;2024-03-02T00:10:59;47.78;;;26.70;;
75419;SDS011;63998;52.488;13.428;2024-03-02T00:13:25;49.92;;;27.27;;
75419;SDS011;63998;52.488;13.428;2024-03-02T00:18:19;49.88;;;26.30;;
75419;SDS011;63998;52.488;13.428;2024-03-02T00:20:56;50.67;;;26.55;;
75419;SDS011;63998;52.488;13.428;2024-03-02T00:23:23;48.13;;;25.90;;
75419;SDS011;63998;52.488;13.428;2024-03-02T00:25:50;51.92;;;26.88;;
75419;SDS011;63998;52.488;13.428;2024-03-02T00:28:20;47.38;;;25.20;;
75419;SDS011;63998;52.488;13.428;2024-03-02T00:33:18;55.72;;;27.40;;
75419;SDS011;63998;52.488;13.428;2024-03-02T00:35:47;50.83;;;26.15;;
75419;SDS011;63998;52.488;13.428;2024-03-02T00:40:44;49.53;;;26.97;;
75419;SDS011;63998;52.488;13.428;2024-03-02T00:43:18;54.72;;;26.90;;
75419;SDS011;63998;52.488;13.428;2024-03-02T00:46:07;52.80;;;26.30;;
75419;SDS011;63998;52.488;13.428;2024-03-02T00:48:36;55.08;;;28.40;;
75419;SDS011;63998;52.488;13.428;2024-03-02T00:51:02;48.85;;;26.67;;
75419;SDS011;63998;52.488;13.428;2024-03-02T00:53:29;55.67;;;26.08;;
75419;SDS011;63998;52.488;13.428;2024-03-02T00:55:55;52.15;;;27.17;;
75419;SDS011;63998;52.488;13.428;2024-03-02T00:58:21;51.85;;;27.50;;
75419;SDS011;63998;52.488;13.428;2024-03-02T01:00:46;52.10;;;28.15;;
75419;SDS011;63998;52.488;13.428;2024-03-02T01:03:12;52.40;;;27.50;;
75419;SDS011;63998;52.488;13.428;2024-03-02T01:05:41;54.67;;;27.45;;
75419;SDS011;63998;52.488;13.428;2024-03-02T01:08:07;52.38;;;27.30;;
75419;SDS011;63998;52.488;13.428;2024-03-02T01:10:32;55.72;;;29.80;;
75419;SDS011;63998;52.488;13.428;2024-03-02T01:12:58;53.83;;;29.23;;
75419;SDS011;63998;52.488;13.428;2024-03-02T01:15:23;51.37;;;27.83;;
75419;SDS011;63998;52.488;13.428;2024-03-02T01:17:48;51.25;;;28.58;;
75419;SDS011;63998;52.488;13.428;2024-03-02T01:20:14;53.58;;;27.40;;
75419;SDS011;63998;52.488;13.428;2024-03-02T01:22:40;49.23;;;28.67;;
75419;SDS011;63998;52.488;13.428;2024-03-02T01:25:05;52.50;;;27.65;;
75419;SDS011;63998;52.488;13.428;2024-03-02T01:27:31;58.42;;;28.70;;
75419;SDS011;63998;52.488;13.428;2024-03-02T01:29:56;53.72;;;28.00;;
75419;SDS011;63998;52.488;13.428;2024-03-02T01:32:21;54.43;;;28.57;;
75419;SDS011;63998;52.488;13.428;2024-03-02T01:34:47;54.33;;;27.77;;
75419;SDS011;63998;52.488;13.428;2024-03-02T01:37:12;51.47;;;28.58;;
75419;SDS011;63998;52.488;13.428;2024-03-02T01:39:38;55.17;;;28.90;;
75419;SDS011;63998;52.488;13.428;2024-03-02T01:42:03;53.58;;;28.75;;
75419;SDS011;63998;52.488;13.428;2024-03-02T01:44:29;58.25;;;29.58;;
75419;SDS011;63998;52.488;13.428;2024-03-02T01:46:54;55.60;;;28.85;;
75419;SDS011;63998;52.488;13.428;2024-03-02T01:49:19;59.87;;;29.37;;
75419;SDS011;63998;52.488;13.428;2024-03-02T01:51:45;56.22;;;27.88;;
75419;SDS011;63998;52.488;13.428;2024-03-02T01:54:11;59.13;;;29.27;;
75419;SDS011;63998;52.488;13.428;2024-03-02T01:56:36;58.78;;;28.65;;
75419;SDS011;63998;52.488;13.428;2024-03-02T01:59:01;56.78;;;28.75;;
75419;SDS011;63998;52.488;13.428;2024-03-02T02:01:28;58.40;;;28.60;;
75419;SDS011;63998;52.488;13.428;2024-03-02T02:03:53;54.60;;;28.17;;
75419;SDS011;63998;52.488;13.428;2024-03-02T02:06:19;54.53;;;27.63;;
75419;SDS011;63998;52.488;13.428;2024-03-02T02:08:44;57.38;;;29.58;;
75419;SDS011;63998;52.488;13.428;2024-03-02T02:11:10;55.55;;;26.92;;
75419;SDS011;63998;52.488;13.428;2024-03-02T02:13:36;59.38;;;28.40;;
75419;SDS011;63998;52.488;13.428;2024-03-02T02:16:05;55.88;;;29.05;;
75419;SDS011;63998;52.488;13.428;2024-03-02T02:18:34;57.72;;;28.83;;
75419;SDS011;63998;52.488;13.428;2024-03-02T02:21:01;58.85;;;29.02;;
75419;SDS011;63998;52.488;13.428;2024-03-02T02:23:26;56.80;;;28.60;;
75419;SDS011;63998;52.488;13.428;2024-03-02T02:25:52;55.47;;;27.98;;
75419;SDS011;63998;52.488;13.428;2024-03-02T02:28:20;56.80;;;29.75;;
75419;SDS011;63998;52.488;13.428;2024-03-02T02:30:45;56.20;;;28.25;;
75419;SDS011;63998;52.488;13.428;2024-03-02T02:33:11;56.03;;;28.65;;
75419;SDS011;63998;52.488;13.428;2024-03-02T02:35:36;56.58;;;29.15;;
75419;SDS011;63998;52.488;13.428;2024-03-02T02:38:01;60.75;;;31.00;;
75419;SDS011;63998;52.488;13.428;2024-03-02T02:40:28;61.63;;;31.10;;
75419;SDS011;63998;52.488;13.428;2024-03-02T02:42:55;58.20;;;30.20;;
75419;SDS011;63998;52.488;13.428;2024-03-02T02:45:21;58.80;;;29.50;;
75419;SDS011;63998;52.488;13.428;2024-03-02T02:47:46;59.08;;;30.33;;
75419;SDS011;63998;52.488;13.428;2024-03-02T02:50:12;57.05;;;28.83;;
75419;SDS011;63998;52.488;13.428;2024-03-02T02:52:38;57.30;;;30.30;;
75419;SDS011;63998;52.488;13.428;2024-03-02T02:55:07;53.78;;;26.45;;
75419;SDS011;63998;52.488;13.428;2024-03-02T02:57:34;55.30;;;27.40;;
75419;SDS011;63998;52.488;13.428;2024-03-02T03:00:07;54.95;;;27.02;;
75419;SDS011;63998;52.488;13.428;2024-03-02T03:02:39;57.65;;;29.23;;
75419;SDS011;63998;52.488;13.428;2024-03-02T03:05:06;53.30;;;28.50;;
75419;SDS011;63998;52.488;13.428;2024-03-02T03:07:33;55.60;;;28.38;;
75419;SDS011;63998;52.488;13.428;2024-03-02T03:09:59;54.75;;;28.02;;
75419;SDS011;63998;52.488;13.428;2024-03-02T03:12:30;63.05;;;28.63;;
75419;SDS011;63998;52.488;13.428;2024-03-02T03:14:58;50.50;;;26.25;;
75419;SDS011;63998;52.488;13.428;2024-03-02T03:17:24;53.58;;;26.33;;
75419;SDS011;63998;52.488;13.428;2024-03-02T03:19:51;53.90;;;26.17;;
75419;SDS011;63998;52.488;13.428;2024-03-02T03:22:19;53.65;;;27.20;;
75419;SDS011;63998;52.488;13.428;2024-03-02T03:24:45;53.83;;;27.17;;
75419;SDS011;63998;52.488;13.428;2024-03-02T03:27:10;47.95;;;26.38;;
75419;SDS011;63998;52.488;13.428;2024-03-02T03:29:38;51.65;;;26.23;;
75419;SDS011;63998;52.488;13.428;2024-03-02T03:32:04;46.17;;;24.77;;
75419;SDS011;63998;52.488;13.428;2024-03-02T03:34:35;51.35;;;26.60;;
75419;SDS011;63998;52.488;13.428;2024-03-02T03:37:00;46.03;;;26.27;;
75419;SDS011;63998;52.488;13.428;2024-03-02T03:39:26;45.60;;;24.92;;
75419;SDS011;63998;52.488;13.428;2024-03-02T03:41:52;47.38;;;25.25;;
75419;SDS011;63998;52.488;13.428;2024-03-02T03:44:18;50.35;;;24.98;;
75419;SDS011;63998;52.488;13.428;2024-03-02T03:46:45;49.70;;;25.05;;
75419;SDS011;63998;52.488;13.428;2024-03-02T03:49:10;42.42;;;23.98;;
75419;SDS011;63998;52.488;13.428;2024-03-02T03:51:36;47.53;;;23.63;;
75419;SDS011;63998;52.488;13.428;2024-03-02T03:54:01;50.73;;;25.63;;
75419;SDS011;63998;52.488;13.428;2024-03-02T03:56:26;49.15;;;25.05;;
75419;SDS011;63998;52.488;13.428;2024-03-02T03:58:52;49.45;;;25.65;;
75419;SDS011;63998;52.488;13.428;2024-03-02T04:01:17;52.22;;;26.02;;
75419;SDS011;63998;52.488;13.428;2024-03-02T04:03:43;47.50;;;24.67;;
75419;SDS011;63998;52.488;13.428;2024-03-02T04:06:08;45.22;;;24.63;;
75419;SDS011;63998;52.488;13.428;2024-03-02T04:08:34;48.20;;;25.08;;
75419;SDS011;63998;52.488;13.428;2024-03-02T04:10:59;45.80;;;24.63;;
75419;SDS011;63998;52.488;13.428;2024-03-02T04:13:24;44.27;;;23.47;;
75419;SDS011;63998;52.488;13.428;2024-03-02T04:15:50;49.55;;;25.10;;
75419;SDS011;63998;52.488;13.428;2024-03-02T04:18:15;43.00;;;24.37;;
75419;SDS011;63998;52.488;13.428;2024-03-02T04:20:41;50.58;;;25.35;;
75419;SDS011;63998;52.488;13.428;2024-03-02T04:23:06;50.05;;;24.20;;
75419;SDS011;63998;52.488;13.428;2024-03-02T04:25:32;49.22;;;24.85;;
75419;SDS011;63998;52.488;13.428;2024-03-02T04:27:58;50.78;;;25.48;;
75419;SDS011;63998;52.488;13.428;2024-03-02T04:30:23;45.72;;;25.33;;
75419;SDS011;63998;52.488;13.428;2024-03-02T04:32:50;48.40;;;23.42;;
75419;SDS011;63998;52.488;13.428;2024-03-02T04:35:15;44.65;;;23.88;;
75419;SDS011;63998;52.488;13.428;2024-03-02T04:37:44;48.78;;;24.98;;
75419;SDS011;63998;52.488;13.428;2024-03-02T04:40:09;44.25;;;22.58;;
75419;SDS011;63998;52.488;13.428;2024-03-02T04:42:35;44.20;;;22.45;;
75419;SDS011;63998;52.488;13.428;2024-03-02T04:45:01;42.75;;;26.33;;
75419;SDS011;63998;52.488;13.428;2024-03-02T04:47:26;42.83;;;23.05;;
75419;SDS011;63998;52.488;13.428;2024-03-02T04:49:52;42.10;;;22.58;;
75419;SDS011;63998;52.488;13.428;2024-03-02T04:52:17;45.00;;;23.63;;
75419;SDS011;63998;52.488;13.428;2024-03-02T04:54:43;46.95;;;24.00;;
75419;SDS011;63998;52.488;13.428;2024-03-02T04:57:27;42.92;;;23.58;;
75419;SDS011;63998;52.488;13.428;2024-03-02T04:59:52;40.05;;;23.42;;
75419;SDS011;63998;52.488;13.428;2024-03-02T05:02:18;46.78;;;24.40;;
75419;SDS011;63998;52.488;13.428;2024-03-02T05:04:43;44.10;;;24.15;;
75419;SDS011;63998;52.488;13.428;2024-03-02T05:07:09;45.15;;;24.35;;
75419;SDS011;63998;52.488;13.428;2024-03-02T05:09:35;44.40;;;23.48;;
75419;SDS011;63998;52.488;13.428;2024-03-02T05:12:00;45.80;;;24.52;;
75419;SDS011;63998;52.488;13.428;2024-03-02T05:14:45;48.25;;;25.02;;
75419;SDS011;63998;52.488;13.428;2024-03-02T05:17:11;48.00;;;25.55;;
75419;SDS011;63998;52.488;13.428;2024-03-02T05:19:36;49.33;;;26.25;;
75419;SDS011;63998;52.488;13.428;2024-03-02T05:22:02;48.40;;;25.75;;
75419;SDS011;63998;52.488;13.428;2024-03-02T05:24:28;49.85;;;24.60;;
75419;SDS011;63998;52.488;13.428;2024-03-02T05:26:53;47.83;;;24.40;;
75419;SDS011;63998;52.488;13.428;2024-03-02T05:29:19;49.97;;;24.83;;
75419;SDS011;63998;52.488;13.428;2024-03-02T05:31:45;45.92;;;25.10;;
75419;SDS011;63998;52.488;13.428;2024-03-02T05:34:11;43.67;;;24.15;;
75419;SDS011;63998;52.488;13.428;2024-03-02T05:36:36;41.00;;;23.02;;
75419;SDS011;63998;52.488;13.428;2024-03-02T05:39:03;46.92;;;24.25;;
75419;SDS011;63998;52.488;13.428;2024-03-02T05:41:31;47.08;;;23.88;;
75419;SDS011;63998;52.488;13.428;2024-03-02T05:43:56;46.78;;;24.30;;
75419;SDS011;63998;52.488;13.428;2024-03-02T05:46:21;48.17;;;23.53;;
75419;SDS011;63998;52.488;13.428;2024-03-02T05:48:47;41.10;;;23.10;;
75419;SDS011;63998;52.488;13.428;2024-03-02T05:51:12;45.57;;;22.77;;
75419;SDS011;63998;52.488;13.428;2024-03-02T05:53:37;44.60;;;23.97;;
75419;SDS011;63998;52.488;13.428;2024-03-02T05:56:03;45.15;;;22.48;;
75419;SDS011;63998;52.488;13.428;2024-03-02T05:58:29;43.35;;;23.42;;
75419;SDS011;63998;52.488;13.428;2024-03-02T06:01:11;50.42;;;25.20;;
75419;SDS011;63998;52.488;13.428;2024-03-02T06:03:36;53.17;;;24.95;;
75419;SDS011;63998;52.488;13.428;2024-03-02T06:06:02;45.77;;;22.77;;
75419;SDS011;63998;52.488;13.428;2024-03-02T06:08:27;48.53;;;25.30;;
75419;SDS011;63998;52.488;13.428;2024-03-02T06:10:52;50.47;;;25.17;;
75419;SDS011;63998;52.488;13.428;2024-03-02T06:13:18;52.13;;;24.98;;
75419;SDS011;63998;52.488;13.428;2024-03-02T06:15:43;45.38;;;24.05;;
75419;SDS011;63998;52.488;13.428;2024-03-02T06:18:09;47.93;;;24.87;;
75419;SDS011;63998;52.488;13.428;2024-03-02T06:20:34;48.00;;;24.60;;
75419;SDS011;63998;52.488;13.428;2024-03-02T06:23:00;52.35;;;25.42;;
75419;SDS011;63998;52.488;13.428;2024-03-02T06:25:25;52.83;;;27.20;;
75419;SDS011;63998;52.488;13.428;2024-03-02T06:27:50;48.53;;;25.43;;
75419;SDS011;63998;52.488;13.428;2024-03-02T06:30:16;52.60;;;26.10;;
75419;SDS011;63998;52.488;13.428;2024-03-02T06:32:41;50.75;;;26.42;;
75419;SDS011;63998;52.488;13.428;2024-03-02T06:35:07;53.90;;;26.07;;
75419;SDS011;63998;52.488;13.428;2024-03-02T06:37:35;52.45;;;26.25;;
75419;SDS011;63998;52.488;13.428;2024-03-02T06:40:00;48.63;;;25.40;;
75419;SDS011;63998;52.488;13.428;2024-03-02T06:42:25;51.73;;;25.73;;
75419;SDS011;63998;52.488;13.428;2024-03-02T06:44:51;53.47;;;26.43;;
75419;SDS011;63998;52.488;13.428;2024-03-02T06:47:16;54.28;;;25.38;;
75419;SDS011;63998;52.488;13.428;2024-03-02T06:49:42;48.97;;;25.07;;
75419;SDS011;63998;52.488;13.428;2024-03-02T06:52:08;48.55;;;26.23;;
75419;SDS011;63998;52.488;13.428;2024-03-02T06:54:33;53.28;;;25.13;;
75419;SDS011;63998;52.488;13.428;2024-03-02T06:56:59;53.88;;;26.63;;
75419;SDS011;63998;52.488;13.428;2024-03-02T06:59:25;55.30;;;26.50;;
75419;SDS011;63998;52.488;13.428;2024-03-02T07:01:50;50.23;;;26.43;;
75419;SDS011;63998;52.488;13.428;2024-03-02T07:04:15;52.33;;;26.07;;
75419;SDS011;63998;52.488;13.428;2024-03-02T07:06:41;52.83;;;27.10;;
75419;SDS011;63998;52.488;13.428;2024-03-02T07:09:06;50.30;;;25.83;;
75419;SDS011;63998;52.488;13.428;2024-03-02T07:11:36;50.95;;;25.42;;
75419;SDS011;63998;52.488;13.428;2024-03-02T07:14:01;51.67;;;25.75;;
75419;SDS011;63998;52.488;13.428;2024-03-02T07:16:27;55.30;;;26.93;;
75419;SDS011;63998;52.488;13.428;2024-03-02T07:18:53;55.50;;;26.48;;
75419;SDS011;63998;52.488;13.428;2024-03-02T07:21:21;52.97;;;27.73;;
75419;SDS011;63998;52.488;13.428;2024-03-02T07:23:47;54.72;;;26.85;;
75419;SDS011;63998;52.488;13.428;2024-03-02T07:26:13;67.32;;;30.60;;
75419;SDS011;63998;52.488;13.428;2024-03-02T07:28:39;48.65;;;26.70;;
75419;SDS011;63998;52.488;13.428;2024-03-02T07:31:05;51.38;;;25.48;;
75419;SDS011;63998;52.488;13.428;2024-03-02T07:33:31;49.55;;;25.98;;
75419;SDS011;63998;52.488;13.428;2024-03-02T07:35:57;49.90;;;25.40;;
75419;SDS011;63998;52.488;13.428;2024-03-02T07:38:24;48.33;;;25.00;;
75419;SDS011;63998;52.488;13.428;2024-03-02T07:40:50;47.10;;;23.52;;
75419;SDS011;63998;52.488;13.428;2024-03-02T07:43:16;50.85;;;25.08;;
75419;SDS011;63998;52.488;13.428;2024-03-02T07:45:42;48.45;;;25.23;;
75419;SDS011;63998;52.488;13.428;2024-03-02T07:48:07;51.15;;;26.15;;
75419;SDS011;63998;52.488;13.428;2024-03-02T07:50:33;49.72;;;25.58;;
75419;SDS011;63998;52.488;13.428;2024-03-02T07:53:00;52.22;;;25.65;;
75419;SDS011;63998;52.488;13.428;2024-03-02T07:55:28;54.45;;;25.40;;
75419;SDS011;63998;52.488;13.428;2024-03-02T07:57:54;47.38;;;25.33;;
75419;SDS011;63998;52.488;13.428;2024-03-02T08:00:20;51.30;;;26.35;;
75419;SDS011;63998;52.488;13.428;2024-03-02T08:02:45;48.90;;;25.23;;
75419;SDS011;63998;52.488;13.428;2024-03-02T08:05:11;50.22;;;25.30;;
75419;SDS011;63998;52.488;13.428;2024-03-02T08:07:36;47.47;;;23.73;;
75419;SDS011;63998;52.488;13.428;2024-03-02T08:10:02;50.00;;;26.40;;
75419;SDS011;63998;52.488;13.428;2024-03-02T08:12:28;48.78;;;25.23;;
75419;SDS011;63998;52.488;13.428;2024-03-02T08:14:53;45.90;;;24.27;;
75419;SDS011;63998;52.488;13.428;2024-03-02T08:17:18;51.50;;;24.23;;
75419;SDS011;63998;52.488;13.428;2024-03-02T08:19:44;50.08;;;24.33;;
75419;SDS011;63998;52.488;13.428;2024-03-02T08:22:09;42.40;;;23.55;;
75419;SDS011;63998;52.488;13.428;2024-03-02T08:24:35;42.28;;;23.08;;
75419;SDS011;63998;52.488;13.428;2024-03-02T08:27:01;51.35;;;25.75;;
75419;SDS011;63998;52.488;13.428;2024-03-02T08:29:26;44.15;;;23.15;;
75419;SDS011;63998;52.488;13.428;2024-03-02T08:31:52;46.97;;;23.75;;
75419;SDS011;63998;52.488;13.428;2024-03-02T08:34:17;43.58;;;22.23;;
75419;SDS011;63998;52.488;13.428;2024-03-02T08:36:43;49.70;;;23.97;;
75419;SDS011;63998;52.488;13.428;2024-03-02T08:39:08;45.67;;;23.23;;
75419;SDS011;63998;52.488;13.428;2024-03-02T08:41:40;45.50;;;24.10;;
75419;SDS011;63998;52.488;13.428;2024-03-02T08:44:12;46.10;;;22.98;;
75419;SDS011;63998;52.488;13.428;2024-03-02T08:46:40;42.30;;;22.95;;
75419;SDS011;63998;52.488;13.428;2024-03-02T08:49:06;46.38;;;24.85;;
75419;SDS011;63998;52.488;13.428;2024-03-02T08:51:32;49.30;;;25.27;;
75419;SDS011;63998;52.488;13.428;2024-03-02T08:53:57;47.63;;;23.92;;
75419;SDS011;63998;52.488;13.428;2024-03-02T08:56:23;45.92;;;24.50;;
75419;SDS011;63998;52.488;13.428;2024-03-02T08:58:49;49.28;;;25.35;;
75419;SDS011;63998;52.488;13.428;2024-03-02T09:01:15;47.85;;;25.02;;
75419;SDS011;63998;52.488;13.428;2024-03-02T09:03:41;49.03;;;25.20;;
75419;SDS011;63998;52.488;13.428;2024-03-02T09:06:09;49.88;;;24.45;;
75419;SDS011;63998;52.488;13.428;2024-03-02T09:08:35;50.45;;;23.83;;
75419;SDS011;63998;52.488;13.428;2024-03-02T09:11:01;47.25;;;25.02;;
75419;SDS011;63998;52.488;13.428;2024-03-02T09:13:27;46.63;;;24.83;;
75419;SDS011;63998;52.488;13.428;2024-03-02T09:15:52;50.60;;;24.88;;
75419;SDS011;63998;52.488;13.428;2024-03-02T09:18:18;52.30;;;25.52;;
75419;SDS011;63998;52.488;13.428;2024-03-02T09:20:43;47.67;;;23.80;;
75419;SDS011;63998;52.488;13.428;2024-03-02T09:23:08;46.10;;;22.27;;
75419;SDS011;63998;52.488;13.428;2024-03-02T09:25:34;45.33;;;23.27;;
75419;SDS011;63998;52.488;13.428;2024-03-02T09:27:59;45.90;;;22.85;;
75419;SDS011;63998;52.488;13.428;2024-03-02T09:30:24;50.53;;;23.70;;
75419;SDS011;63998;52.488;13.428;2024-03-02T09:32:50;44.27;;;22.00;;
75419;SDS011;63998;52.488;13.428;2024-03-02T09:35:15;46.70;;;22.50;;
75419;SDS011;63998;52.488;13.428;2024-03-02T09:37:40;41.28;;;21.80;;
75419;SDS011;63998;52.488;13.428;2024-03-02T09:40:06;47.20;;;22.60;;
75419;SDS011;63998;52.488;13.428;2024-03-02T09:42:32;46.58;;;22.20;;
75419;SDS011;63998;52.488;13.428;2024-03-02T09:44:57;43.00;;;20.92;;
75419;SDS011;63998;52.488;13.428;2024-03-02T09:47:23;42.58;;;21.15;;
75419;SDS011;63998;52.488;13.428;2024-03-02T09:49:48;39.22;;;20.88;;
75419;SDS011;63998;52.488;13.428;2024-03-02T09:52:14;38.05;;;20.77;;
75419;SDS011;63998;52.488;13.428;2024-03-02T09:54:40;38.22;;;19.95;;
75419;SDS011;63998;52.488;13.428;2024-03-02T09:57:05;38.45;;;19.75;;
75419;SDS011;63998;52.488;13.428;2024-03-02T09:59:30;40.80;;;20.83;;
75419;SDS011;63998;52.488;13.428;2024-03-02T10:04:25;40.13;;;20.88;;
75419;SDS011;63998;52.488;13.428;2024-03-02T10:06:51;35.97;;;20.02;;
75419;SDS011;63998;52.488;13.428;2024-03-02T10:09:34;36.00;;;19.75;;
75419;SDS011;63998;52.488;13.428;2024-03-02T10:12:03;36.27;;;19.57;;
75419;SDS011;63998;52.488;13.428;2024-03-02T10:14:30;33.55;;;18.58;;
75419;SDS011;63998;52.488;13.428;2024-03-02T10:16:55;37.13;;;18.60;;
75419;SDS011;63998;52.488;13.428;2024-03-02T10:19:27;38.75;;;19.70;;
75419;SDS011;63998;52.488;13.428;2024-03-02T10:21:57;39.00;;;18.42;;
75419;SDS011;63998;52.488;13.428;2024-03-02T10:24:23;31.77;;;17.48;;
75419;SDS011;63998;52.488;13.428;2024-03-02T10:26:50;33.72;;;17.75;;
75419;SDS011;63998;52.488;13.428;2024-03-02T10:29:15;27.63;;;16.02;;
75419;SDS011;63998;52.488;13.428;2024-03-02T10:31:42;33.92;;;15.93;;
75419;SDS011;63998;52.488;13.428;2024-03-02T10:34:09;31.15;;;16.70;;
75419;SDS011;63998;52.488;13.428;2024-03-02T10:36:36;28.40;;;15.48;;
75419;SDS011;63998;52.488;13.428;2024-03-02T10:39:03;30.80;;;15.75;;
75419;SDS011;63998;52.488;13.428;2024-03-02T10:41:36;27.85;;;15.93;;
75419;SDS011;63998;52.488;13.428;2024-03-02T10:44:03;27.33;;;14.43;;
75419;SDS011;63998;52.488;13.428;2024-03-02T10:46:32;28.88;;;15.25;;
75419;SDS011;63998;52.488;13.428;2024-03-02T10:48:58;30.92;;;15.63;;
75419;SDS011;63998;52.488;13.428;2024-03-02T10:51:25;28.17;;;14.48;;
75419;SDS011;63998;52.488;13.428;2024-03-02T10:53:52;24.92;;;13.38;;
75419;SDS011;63998;52.488;13.428;2024-03-02T10:56:21;23.95;;;12.93;;
75419;SDS011;63998;52.488;13.428;2024-03-02T10:58:51;28.30;;;14.70;;
75419;SDS011;63998;52.488;13.428;2024-03-02T11:01:26;25.77;;;14.70;;
75419;SDS011;63998;52.488;13.428;2024-03-02T11:03:53;25.70;;;14.68;;
75419;SDS011;63998;52.488;13.428;2024-03-02T11:06:19;22.90;;;14.27;;
75419;SDS011;63998;52.488;13.428;2024-03-02T11:08:47;24.98;;;13.68;;
75419;SDS011;63998;52.488;13.428;2024-03-02T11:11:15;27.05;;;14.85;;
75419;SDS011;63998;52.488;13.428;2024-03-02T11:13:45;25.83;;;14.57;;
75419;SDS011;63998;52.488;13.428;2024-03-02T11:16:36;31.25;;;14.82;;
75419;SDS011;63998;52.488;13.428;2024-03-02T11:19:05;22.80;;;13.60;;
75419;SDS011;63998;52.488;13.428;2024-03-02T11:21:34;24.08;;;13.63;;
75419;SDS011;63998;52.488;13.428;2024-03-02T11:24:00;23.52;;;13.40;;
75419;SDS011;63998;52.488;13.428;2024-03-02T11:26:45;24.13;;;13.23;;
75419;SDS011;63998;52.488;13.428;2024-03-02T11:29:25;26.13;;;12.80;;
75419;SDS011;63998;52.488;13.428;2024-03-02T11:32:04;25.40;;;12.98;;
75419;SDS011;63998;52.488;13.428;2024-03-02T11:34:30;24.27;;;13.48;;
75419;SDS011;63998;52.488;13.428;2024-03-02T11:36:56;25.90;;;15.15;;
75419;SDS011;63998;52.488;13.428;2024-03-02T11:39:21;26.15;;;14.60;;
75419;SDS011;63998;52.488;13.428;2024-03-02T11:41:48;26.33;;;14.05;;
75419;SDS011;63998;52.488;13.428;2024-03-02T11:44:14;26.13;;;14.35;;
75419;SDS011;63998;52.488;13.428;2024-03-02T11:46:41;26.73;;;14.23;;
75419;SDS011;63998;52.488;13.428;2024-03-02T11:49:06;23.80;;;13.98;;
75419;SDS011;63998;52.488;13.428;2024-03-02T11:51:33;22.67;;;12.83;;
75419;SDS011;63998;52.488;13.428;2024-03-02T11:53:59;24.92;;;13.50;;
75419;SDS011;63998;52.488;13.428;2024-03-02T11:56:27;22.52;;;12.32;;
75419;SDS011;63998;52.488;13.428;2024-03-02T11:58:54;21.95;;;12.60;;
75419;SDS011;63998;52.488;13.428;2024-03-02T12:01:20;20.60;;;12.93;;
75419;SDS011;63998;52.488;13.428;2024-03-02T12:03:46;20.13;;;12.23;;
75419;SDS011;63998;52.488;13.428;2024-03-02T12:06:11;20.55;;;12.57;;
75419;SDS011;63998;52.488;13.428;2024-03-02T12:08:38;21.17;;;12.63;;
75419;SDS011;63998;52.488;13.428;2024-03-02T12:11:03;20.88;;;12.13;;
75419;SDS011;63998;52.488;13.428;2024-03-02T12:13:29;20.23;;;12.05;;
75419;SDS011;63998;52.488;13.428;2024-03-02T12:15:54;19.63;;;12.07;;
75419;SDS011;63998;52.488;13.428;2024-03-02T12:18:23;19.00;;;11.80;;
75419;SDS011;63998;52.488;13.428;2024-03-02T12:20:49;19.80;;;10.82;;
75419;SDS011;63998;52.488;13.428;2024-03-02T12:23:22;19.75;;;12.70;;
75419;SDS011;63998;52.488;13.428;2024-03-02T12:25:47;21.90;;;12.65;;
75419;SDS011;63998;52.488;13.428;2024-03-02T12:28:13;20.88;;;11.82;;
75419;SDS011;63998;52.488;13.428;2024-03-02T12:30:39;17.77;;;10.90;;
75419;SDS011;63998;52.488;13.428;2024-03-02T12:33:04;19.38;;;11.65;;
75419;SDS011;63998;52.488;13.428;2024-03-02T12:35:32;19.38;;;11.20;;
75419;SDS011;63998;52.488;13.428;2024-03-02T12:37:58;16.48;;;11.25;;
75419;SDS011;63998;52.488;13.428;2024-03-02T12:40:23;17.10;;;10.38;;
75419;SDS011;63998;52.488;13.428;2024-03-02T12:42:52;18.50;;;11.02;;
75419;SDS011;63998;52.488;13.428;2024-03-02T12:45:17;20.73;;;11.77;;
75419;SDS011;63998;52.488;13.428;2024-03-02T12:47:57;20.80;;;11.90;;
75419;SDS011;63998;52.488;13.428;2024-03-02T12:50:25;16.83;;;10.25;;
75419;SDS011;63998;52.488;13.428;2024-03-02T12:52:54;18.23;;;10.68;;
75419;SDS011;63998;52.488;13.428;2024-03-02T12:55:20;15.88;;;9.40;;
75419;SDS011;63998;52.488;13.428;2024-03-02T12:57:50;16.45;;;10.05;;
75419;SDS011;63998;52.488;13.428;2024-03-02T13:00:18;18.98;;;10.65;;
75419;SDS011;63998;52.488;13.428;2024-03-02T13:02:45;16.60;;;10.32;;
75419;SDS011;63998;52.488;13.428;2024-03-02T13:05:11;15.55;;;9.90;;
75419;SDS011;63998;52.488;13.428;2024-03-02T13:07:37;21.15;;;10.77;;
75419;SDS011;63998;52.488;13.428;2024-03-02T13:10:03;17.88;;;10.98;;
75419;SDS011;63998;52.488;13.428;2024-03-02T13:12:29;17.38;;;10.05;;
75419;SDS011;63998;52.488;13.428;2024-03-02T13:14:57;15.90;;;9.90;;
75419;SDS011;63998;52.488;13.428;2024-03-02T13:17:23;17.42;;;9.63;;
75419;SDS011;63998;52.488;13.428;2024-03-02T13:19:57;16.60;;;9.37;;
75419;SDS011;63998;52.488;13.428;2024-03-02T13:22:24;15.82;;;9.95;;
75419;SDS011;63998;52.488;13.428;2024-03-02T13:24:50;17.08;;;10.25;;
75419;SDS011;63998;52.488;13.428;2024-03-02T13:27:16;18.63;;;10.65;;
75419;SDS011;63998;52.488;13.428;2024-03-02T13:29:44;15.07;;;9.57;;
75419;SDS011;63998;52.488;13.428;2024-03-02T13:32:19;14.88;;;9.00;;
75419;SDS011;63998;52.488;13.428;2024-03-02T13:34:48;18.30;;;9.98;;
75419;SDS011;63998;52.488;13.428;2024-03-02T13:37:14;18.08;;;10.70;;
75419;SDS011;63998;52.488;13.428;2024-03-02T13:39:39;17.77;;;10.00;;
75419;SDS011;63998;52.488;13.428;2024-03-02T13:42:09;17.63;;;10.40;;
75419;SDS011;63998;52.488;13.428;2024-03-02T13:44:35;15.35;;;10.23;;
75419;SDS011;63998;52.488;13.428;2024-03-02T13:47:01;17.92;;;9.43;;
75419;SDS011;63998;52.488;13.428;2024-03-02T13:49:27;12.65;;;8.88;;
75419;SDS011;63998;52.488;13.428;2024-03-02T13:51:58;15.50;;;10.05;;
75419;SDS011;63998;52.488;13.428;2024-03-02T13:54:41;14.18;;;9.50;;
75419;SDS011;63998;52.488;13.428;2024-03-02T13:57:07;15.02;;;9.48;;
75419;SDS011;63998;52.488;13.428;2024-03-02T13:59:34;16.20;;;10.35;;
75419;SDS011;63998;52.488;13.428;2024-03-02T14:02:00;16.20;;;9.45;;
75419;SDS011;63998;52.488;13.428;2024-03-02T14:04:27;15.32;;;9.38;;
75419;SDS011;63998;52.488;13.428;2024-03-02T14:06:52;15.13;;;9.52;;
75419;SDS011;63998;52.488;13.428;2024-03-02T14:09:18;15.93;;;9.02;;
75419;SDS011;63998;52.488;13.428;2024-03-02T14:11:45;13.77;;;8.90;;
75419;SDS011;63998;52.488;13.428;2024-03-02T14:14:10;14.10;;;8.90;;
75419;SDS011;63998;52.488;13.428;2024-03-02T14:16:36;13.55;;;8.00;;